createdAt,value
2022-12-12T00:01:04.339Z,-1.47
2022-12-12T00:05:58.992Z,-1.46
2022-12-12T00:10:58.911Z,-1.46
2022-12-12T00:15:58.882Z,-1.43
2022-12-12T00:20:58.780Z,-1.45
2022-12-12T00:25:58.721Z,-1.45
2022-12-12T00:30:58.700Z,-1.46
2022-12-12T00:35:58.591Z,-1.46
2022-12-12T00:40:58.520Z,-1.49
2022-12-12T00:45:58.568Z,-1.50
2022-12-12T00:50:58.392Z,-1.52
2022-12-12T00:55:58.332Z,-1.53
2022-12-12T01:00:58.262Z,-1.52
2022-12-12T01:05:58.213Z,-1.55
2022-12-12T01:10:58.136Z,-1.57
2022-12-12T01:15:58.085Z,-1.58
2022-12-12T01:20:57.998Z,-1.61
2022-12-12T01:25:57.953Z,-1.62
2022-12-12T01:30:58.008Z,-1.64
2022-12-12T01:35:57.829Z,-1.66
2022-12-12T01:40:57.741Z,-1.69
2022-12-12T01:45:57.695Z,-1.69
2022-12-12T01:50:57.616Z,-1.77
2022-12-12T01:55:57.561Z,-1.84
2022-12-12T02:00:57.612Z,-1.90
2022-12-12T02:05:57.435Z,-1.94
2022-12-12T02:10:57.365Z,-2.01
2022-12-12T02:15:57.382Z,-2.05
2022-12-12T02:20:57.237Z,-2.08
2022-12-12T02:25:57.182Z,-2.13
2022-12-12T02:30:57.119Z,-2.19
2022-12-12T02:35:57.056Z,-2.30
2022-12-12T02:40:56.984Z,-2.37
2022-12-12T02:45:56.936Z,-2.47
2022-12-12T02:50:56.862Z,-2.52
2022-12-12T02:55:56.809Z,-2.51
2022-12-12T03:00:56.782Z,-2.44
2022-12-12T03:05:56.690Z,-2.43
2022-12-12T03:10:56.613Z,-2.44
2022-12-12T03:15:56.628Z,-2.46
2022-12-12T03:20:56.487Z,-2.52
2022-12-12T03:25:56.442Z,-2.54
2022-12-12T03:30:56.361Z,-2.57
2022-12-12T03:35:56.314Z,-2.58
2022-12-12T03:40:56.233Z,-2.59
2022-12-12T03:45:56.406Z,-2.61
2022-12-12T03:50:56.147Z,-2.64
2022-12-12T03:55:56.064Z,-2.65
2022-12-12T04:00:56.054Z,-2.69
2022-12-12T04:05:55.933Z,-2.70
2022-12-12T04:10:55.866Z,-2.73
2022-12-12T04:15:55.813Z,-2.76
2022-12-12T04:20:55.747Z,-2.75
2022-12-12T04:25:55.696Z,-2.75
2022-12-12T04:30:55.617Z,-2.75
2022-12-12T04:35:55.576Z,-2.72
2022-12-12T04:40:55.492Z,-2.69
2022-12-12T04:45:55.534Z,-2.64
2022-12-12T04:50:55.368Z,-2.59
2022-12-12T04:55:55.326Z,-2.58
2022-12-12T05:00:55.299Z,-2.52
2022-12-12T05:05:55.203Z,-2.51
2022-12-12T05:10:55.133Z,-2.44
2022-12-12T05:15:55.082Z,-2.40
2022-12-12T05:20:55.010Z,-2.34
2022-12-12T05:25:54.959Z,-2.33
2022-12-12T05:30:54.933Z,-2.30
2022-12-12T05:35:54.836Z,-2.25
2022-12-12T05:40:54.778Z,-2.23
2022-12-12T05:45:54.756Z,-2.18
2022-12-12T05:50:54.650Z,-2.12
2022-12-12T05:55:54.587Z,-2.13
2022-12-12T06:00:57.352Z,-2.08
2022-12-12T06:05:54.463Z,-2.08
2022-12-12T06:10:54.404Z,-2.02
2022-12-12T06:15:54.386Z,-2.00
2022-12-12T06:20:54.272Z,-1.98
2022-12-12T06:25:54.215Z,-1.95
2022-12-12T06:30:54.259Z,-1.95
2022-12-12T06:35:54.239Z,-1.94
2022-12-12T06:40:54.169Z,-1.89
2022-12-12T06:45:54.294Z,-1.87
2022-12-12T06:50:54.236Z,-1.83
2022-12-12T06:55:54.281Z,-1.80
2022-12-12T07:00:54.347Z,-1.79
2022-12-12T07:05:53.705Z,-1.76
2022-12-12T07:10:53.644Z,-1.74
2022-12-12T07:15:53.658Z,-1.68
2022-12-12T07:20:53.519Z,-1.64
2022-12-12T07:25:53.451Z,-1.64
2022-12-12T07:30:53.406Z,-1.61
2022-12-12T07:35:53.330Z,-1.57
2022-12-12T07:40:53.267Z,-1.49
2022-12-12T07:45:53.190Z,-1.46
2022-12-12T07:50:53.134Z,-1.43
2022-12-12T07:55:53.060Z,-1.37
2022-12-12T08:00:53.003Z,-1.29
2022-12-12T08:05:52.931Z,-1.22
2022-12-12T08:10:52.874Z,-1.13
2022-12-12T08:15:52.901Z,-1.07
2022-12-12T08:20:52.771Z,-1.04
2022-12-12T08:25:52.675Z,-1.03
2022-12-12T08:30:52.677Z,-1.03
2022-12-12T08:35:52.548Z,-0.95
2022-12-12T08:40:52.508Z,-0.85
2022-12-12T08:45:52.417Z,-0.72
2022-12-12T08:50:52.368Z,-0.67
2022-12-12T08:55:52.288Z,-0.62
2022-12-12T09:00:52.228Z,-0.54
2022-12-12T09:05:52.156Z,-0.49
2022-12-12T09:10:52.102Z,-0.43
2022-12-12T09:15:52.071Z,-0.35
2022-12-12T09:20:51.968Z,-0.29
2022-12-12T09:25:51.896Z,-0.23
2022-12-12T09:30:51.837Z,-0.13
2022-12-12T09:35:51.765Z,-0.05
2022-12-12T09:40:51.728Z,0.05
2022-12-12T09:45:51.745Z,0.39
2022-12-12T09:50:51.589Z,0.43
2022-12-12T09:55:51.506Z,0.43
2022-12-12T10:00:51.483Z,0.59
2022-12-12T10:06:13.466Z,0.67
2022-12-12T10:10:52.355Z,0.69
2022-12-12T10:15:51.246Z,0.77
2022-12-12T10:20:51.192Z,0.83
2022-12-12T10:25:51.129Z,0.94
2022-12-12T10:30:51.064Z,1.04
2022-12-12T10:35:51.002Z,1.11
2022-12-12T10:40:50.939Z,1.03
2022-12-12T10:45:50.909Z,0.98
2022-12-12T10:50:50.848Z,0.94
2022-12-12T10:55:50.748Z,0.93
2022-12-12T11:00:50.767Z,0.97
2022-12-12T11:05:50.611Z,1.03
2022-12-12T11:10:50.556Z,1.04
2022-12-12T11:15:50.487Z,1.12
2022-12-12T11:20:50.428Z,1.22
2022-12-12T11:25:50.358Z,1.30
2022-12-12T11:30:50.305Z,1.42
2022-12-12T11:35:50.229Z,1.95
2022-12-12T11:40:50.173Z,2.17
2022-12-12T11:45:50.155Z,2.19
2022-12-12T11:50:50.065Z,2.12
2022-12-12T11:55:49.983Z,2.01
2022-12-12T12:00:49.917Z,2.19
2022-12-12T12:05:49.855Z,2.17
2022-12-12T12:10:49.792Z,2.12
2022-12-12T12:15:49.730Z,1.96
2022-12-12T12:20:49.664Z,1.84
2022-12-12T12:25:49.594Z,1.59
2022-12-12T12:30:49.569Z,1.50
2022-12-12T12:35:49.464Z,1.40
2022-12-12T12:40:49.408Z,1.37
2022-12-12T12:45:49.535Z,1.34
2022-12-12T12:50:49.280Z,1.34
2022-12-12T12:55:49.209Z,1.32
2022-12-12T13:00:49.152Z,1.28
2022-12-12T13:05:49.078Z,1.16
2022-12-12T13:10:49.024Z,1.01
2022-12-12T13:15:49.063Z,0.91
2022-12-12T13:20:48.893Z,0.68
2022-12-12T13:25:48.824Z,0.49
2022-12-12T13:30:48.842Z,0.31
2022-12-12T13:35:48.692Z,0.12
2022-12-12T13:40:48.638Z,0.00
2022-12-12T13:45:48.579Z,-0.09
2022-12-12T13:50:48.516Z,-0.16
2022-12-12T13:55:48.493Z,-0.26
2022-12-12T14:00:48.389Z,-0.36
2022-12-12T14:05:48.333Z,-0.46
2022-12-12T14:10:48.257Z,-0.52
2022-12-12T14:15:48.252Z,-0.64
2022-12-12T14:20:48.135Z,-0.74
2022-12-12T14:25:48.064Z,-0.89
2022-12-12T14:30:48.053Z,-1.04
2022-12-12T14:35:47.935Z,-1.11
2022-12-12T14:40:47.877Z,-1.19
2022-12-12T14:45:47.808Z,-1.21
2022-12-12T14:50:47.757Z,-1.34
2022-12-12T14:55:47.673Z,-1.40
2022-12-12T15:00:47.617Z,-1.37
2022-12-12T15:05:47.554Z,-1.36
2022-12-12T15:10:47.486Z,-1.36
2022-12-12T15:15:47.466Z,-1.36
2022-12-12T15:20:47.358Z,-1.36
2022-12-12T15:25:47.310Z,-1.36
2022-12-12T15:30:47.236Z,-1.32
2022-12-12T15:35:47.167Z,-1.42
2022-12-12T15:40:47.109Z,-1.42
2022-12-12T15:45:47.025Z,-1.46
2022-12-12T15:50:46.977Z,-1.49
2022-12-12T15:55:46.896Z,-1.45
2022-12-12T16:00:46.881Z,-1.40
2022-12-12T16:05:46.768Z,-1.37
2022-12-12T16:10:46.720Z,-1.32
2022-12-12T16:15:46.638Z,-1.26
2022-12-12T16:20:46.580Z,-1.28
2022-12-12T16:25:46.514Z,-1.32
2022-12-12T16:30:46.474Z,-1.28
2022-12-12T16:35:46.374Z,-1.28
2022-12-12T16:40:46.319Z,-1.24
2022-12-12T16:45:46.277Z,-1.22
2022-12-12T16:50:46.191Z,-1.21
2022-12-12T16:55:46.123Z,-1.18
2022-12-12T17:00:46.096Z,-1.14
2022-12-12T17:05:45.992Z,-1.13
2022-12-12T17:10:45.944Z,-1.07
2022-12-12T17:15:45.863Z,-1.08
2022-12-12T17:20:45.816Z,-1.07
2022-12-12T17:25:45.737Z,-1.07
2022-12-12T17:30:45.693Z,-1.10
2022-12-12T17:35:45.608Z,-1.14
2022-12-12T17:40:45.553Z,-1.16
2022-12-12T17:45:45.520Z,-1.19
2022-12-12T17:50:45.421Z,-1.21
2022-12-12T17:55:51.727Z,-1.21
2022-12-12T18:00:45.354Z,-1.16
2022-12-12T18:05:45.224Z,-1.11
2022-12-12T18:10:45.165Z,-1.11
2022-12-12T18:15:45.090Z,-1.10
2022-12-12T18:20:45.047Z,-1.11
2022-12-12T18:25:44.959Z,-1.11
2022-12-12T18:30:44.913Z,-1.06
2022-12-12T18:35:44.830Z,-1.07
2022-12-12T18:40:44.780Z,-1.08
2022-12-12T18:45:44.756Z,-1.10
2022-12-12T18:50:44.651Z,-1.14
2022-12-12T18:55:44.566Z,-1.19
2022-12-12T19:00:44.508Z,-1.25
2022-12-12T19:05:44.436Z,-1.34
2022-12-12T19:10:44.378Z,-1.47
2022-12-12T19:15:44.306Z,-1.69
2022-12-12T19:20:44.262Z,-1.80
2022-12-12T19:25:44.175Z,-2.07
2022-12-12T19:30:44.173Z,-2.28
2022-12-12T19:35:44.050Z,-2.40
2022-12-12T19:40:44.004Z,-2.44
2022-12-12T19:45:43.987Z,-2.47
2022-12-12T19:50:43.879Z,-2.61
2022-12-12T19:55:43.800Z,-2.75
2022-12-12T20:00:43.755Z,-2.82
2022-12-12T20:05:43.674Z,-2.90
2022-12-12T20:10:43.629Z,-2.94
2022-12-12T20:15:43.582Z,-3.06
2022-12-12T20:20:43.492Z,-3.25
2022-12-12T20:25:43.421Z,-3.40
2022-12-12T20:30:43.392Z,-3.49
2022-12-12T20:35:43.295Z,-3.61
2022-12-12T20:40:43.238Z,-3.76
2022-12-12T20:45:43.172Z,-3.87
2022-12-12T20:50:43.110Z,-4.01
2022-12-12T20:55:43.042Z,-4.08
2022-12-12T21:00:42.983Z,-4.13
2022-12-12T21:05:42.916Z,-4.29
2022-12-12T21:10:42.859Z,-4.42
2022-12-12T21:15:42.822Z,-4.52
2022-12-12T21:20:42.733Z,-4.64
2022-12-12T21:25:42.662Z,-4.79
2022-12-12T21:30:42.610Z,-4.89
2022-12-12T21:35:42.539Z,-4.98
2022-12-12T21:40:42.483Z,-4.96
2022-12-12T21:45:42.422Z,-5.02
2022-12-12T21:50:42.361Z,-5.08
2022-12-12T21:55:42.301Z,-5.08
2022-12-12T22:00:42.239Z,-5.09
2022-12-12T22:05:42.172Z,-5.17
2022-12-12T22:10:42.109Z,-5.28
2022-12-12T22:15:42.108Z,-5.34
2022-12-12T22:20:41.985Z,-5.48
2022-12-12T22:25:41.914Z,-5.66
2022-12-12T22:30:41.861Z,-5.75
2022-12-12T22:35:41.792Z,-5.81
2022-12-12T22:40:41.739Z,-5.83
2022-12-12T22:45:41.667Z,-5.75
2022-12-12T22:50:41.611Z,-5.70
2022-12-12T22:55:41.543Z,-5.80
2022-12-12T23:00:41.490Z,-6.17
2022-12-12T23:05:41.479Z,-6.28
2022-12-12T23:10:41.362Z,-6.32
2022-12-12T23:15:41.302Z,-6.39
2022-12-12T23:20:41.239Z,-6.47
2022-12-12T23:25:41.181Z,-6.52
2022-12-12T23:30:41.118Z,-6.56
2022-12-12T23:35:41.057Z,-6.62
2022-12-12T23:40:40.991Z,-6.68
2022-12-12T23:45:41.018Z,-6.67
2022-12-12T23:50:40.872Z,-6.70
2022-12-12T23:55:40.810Z,-6.74
